sensor_id;sensor_type;location;lat;lon;timestamp;P1;durP1;ratioP1;P2;durP2;ratioP2
64957;SDS011;51486;50.232;19.208;2022-12-07T00:00:55;17.30;;;9.47;;
64957;SDS011;51486;50.232;19.208;2022-12-07T00:03:29;16.97;;;8.93;;
64957;SDS011;51486;50.232;19.208;2022-12-07T00:05:57;21.20;;;9.40;;
64957;SDS011;51486;50.232;19.208;2022-12-07T00:08:23;20.87;;;8.80;;
64957;SDS011;51486;50.232;19.208;2022-12-07T00:10:48;19.60;;;8.33;;
64957;SDS011;51486;50.232;19.208;2022-12-07T00:13:13;21.50;;;8.33;;
64957;SDS011;51486;50.232;19.208;2022-12-07T00:15:39;16.73;;;8.07;;
64957;SDS011;51486;50.232;19.208;2022-12-07T00:18:04;18.60;;;8.50;;
64957;SDS011;51486;50.232;19.208;2022-12-07T00:20:29;16.93;;;7.17;;
64957;SDS011;51486;50.232;19.208;2022-12-07T00:22:56;18.27;;;8.10;;
64957;SDS011;51486;50.232;19.208;2022-12-07T00:25:21;17.27;;;8.00;;
64957;SDS011;51486;50.232;19.208;2022-12-07T00:27:46;19.77;;;8.83;;
64957;SDS011;51486;50.232;19.208;2022-12-07T00:30:12;15.90;;;7.70;;
64957;SDS011;51486;50.232;19.208;2022-12-07T00:32:37;19.87;;;8.40;;
64957;SDS011;51486;50.232;19.208;2022-12-07T00:35:03;13.53;;;7.30;;
64957;SDS011;51486;50.232;19.208;2022-12-07T00:37:28;14.57;;;6.63;;
64957;SDS011;51486;50.232;19.208;2022-12-07T00:39:54;17.40;;;7.47;;
64957;SDS011;51486;50.232;19.208;2022-12-07T00:42:19;17.93;;;7.63;;
64957;SDS011;51486;50.232;19.208;2022-12-07T00:44:44;18.30;;;7.60;;
64957;SDS011;51486;50.232;19.208;2022-12-07T00:47:10;23.33;;;7.80;;
64957;SDS011;51486;50.232;19.208;2022-12-07T00:49:35;20.07;;;9.33;;
64957;SDS011;51486;50.232;19.208;2022-12-07T00:52:01;19.37;;;7.97;;
64957;SDS011;51486;50.232;19.208;2022-12-07T00:54:26;17.53;;;7.77;;
64957;SDS011;51486;50.232;19.208;2022-12-07T00:56:51;20.13;;;7.87;;
64957;SDS011;51486;50.232;19.208;2022-12-07T00:59:17;18.17;;;7.87;;
64957;SDS011;51486;50.232;19.208;2022-12-07T01:01:42;17.57;;;7.70;;
64957;SDS011;51486;50.232;19.208;2022-12-07T01:04:07;17.57;;;7.87;;
64957;SDS011;51486;50.232;19.208;2022-12-07T01:06:33;21.20;;;7.87;;
64957;SDS011;51486;50.232;19.208;2022-12-07T01:08:59;17.53;;;7.33;;
64957;SDS011;51486;50.232;19.208;2022-12-07T01:11:26;14.93;;;8.03;;
64957;SDS011;51486;50.232;19.208;2022-12-07T01:13:54;16.27;;;7.93;;
64957;SDS011;51486;50.232;19.208;2022-12-07T01:16:20;18.00;;;7.60;;
64957;SDS011;51486;50.232;19.208;2022-12-07T01:18:47;19.70;;;9.07;;
64957;SDS011;51486;50.232;19.208;2022-12-07T01:21:19;15.80;;;7.50;;
64957;SDS011;51486;50.232;19.208;2022-12-07T01:23:46;18.57;;;7.53;;
64957;SDS011;51486;50.232;19.208;2022-12-07T01:26:13;18.60;;;9.07;;
64957;SDS011;51486;50.232;19.208;2022-12-07T01:28:43;18.03;;;8.57;;
64957;SDS011;51486;50.232;19.208;2022-12-07T01:31:12;26.03;;;10.80;;
64957;SDS011;51486;50.232;19.208;2022-12-07T01:33:40;49.60;;;21.93;;
64957;SDS011;51486;50.232;19.208;2022-12-07T01:38:45;34.40;;;15.27;;
64957;SDS011;51486;50.232;19.208;2022-12-07T01:41:12;31.40;;;12.83;;
64957;SDS011;51486;50.232;19.208;2022-12-07T01:44:07;34.60;;;14.30;;
64957;SDS011;51486;50.232;19.208;2022-12-07T01:46:48;30.53;;;12.40;;
64957;SDS011;51486;50.232;19.208;2022-12-07T01:49:23;21.60;;;9.33;;
64957;SDS011;51486;50.232;19.208;2022-12-07T01:54:51;31.60;;;14.03;;
64957;SDS011;51486;50.232;19.208;2022-12-07T01:57:19;21.77;;;11.53;;
64957;SDS011;51486;50.232;19.208;2022-12-07T01:59:45;23.63;;;10.97;;
64957;SDS011;51486;50.232;19.208;2022-12-07T02:02:17;24.93;;;10.90;;
64957;SDS011;51486;50.232;19.208;2022-12-07T02:04:45;20.27;;;9.00;;
64957;SDS011;51486;50.232;19.208;2022-12-07T02:07:10;16.73;;;8.87;;
64957;SDS011;51486;50.232;19.208;2022-12-07T02:09:36;24.03;;;9.43;;
64957;SDS011;51486;50.232;19.208;2022-12-07T02:12:02;14.00;;;8.20;;
64957;SDS011;51486;50.232;19.208;2022-12-07T02:14:27;27.70;;;10.70;;
64957;SDS011;51486;50.232;19.208;2022-12-07T02:31:19;15.73;;;8.63;;
64957;SDS011;51486;50.232;19.208;2022-12-07T02:33:49;15.33;;;8.33;;
64957;SDS011;51486;50.232;19.208;2022-12-07T02:36:27;19.03;;;8.60;;
64957;SDS011;51486;50.232;19.208;2022-12-07T02:38:59;19.40;;;9.63;;
64957;SDS011;51486;50.232;19.208;2022-12-07T02:41:40;16.63;;;7.87;;
64957;SDS011;51486;50.232;19.208;2022-12-07T02:44:16;18.43;;;8.47;;
64957;SDS011;51486;50.232;19.208;2022-12-07T02:46:50;24.53;;;9.87;;
64957;SDS011;51486;50.232;19.208;2022-12-07T02:49:19;19.20;;;8.23;;
64957;SDS011;51486;50.232;19.208;2022-12-07T02:51:48;30.67;;;9.70;;
64957;SDS011;51486;50.232;19.208;2022-12-07T02:54:14;18.43;;;9.63;;
64957;SDS011;51486;50.232;19.208;2022-12-07T03:02:04;24.37;;;10.63;;
64957;SDS011;51486;50.232;19.208;2022-12-07T03:10:10;24.70;;;9.97;;
64957;SDS011;51486;50.232;19.208;2022-12-07T03:12:44;27.77;;;11.37;;
64957;SDS011;51486;50.232;19.208;2022-12-07T03:15:25;23.87;;;11.67;;
64957;SDS011;51486;50.232;19.208;2022-12-07T03:17:54;27.37;;;11.27;;
64957;SDS011;51486;50.232;19.208;2022-12-07T03:20:22;19.60;;;10.23;;
64957;SDS011;51486;50.232;19.208;2022-12-07T03:22:50;32.00;;;11.00;;
64957;SDS011;51486;50.232;19.208;2022-12-07T03:25:17;24.17;;;11.17;;
64957;SDS011;51486;50.232;19.208;2022-12-07T03:27:44;26.60;;;11.47;;
64957;SDS011;51486;50.232;19.208;2022-12-07T03:30:13;19.73;;;10.27;;
64957;SDS011;51486;50.232;19.208;2022-12-07T03:32:51;24.93;;;11.30;;
64957;SDS011;51486;50.232;19.208;2022-12-07T03:35:28;22.93;;;9.87;;
64957;SDS011;51486;50.232;19.208;2022-12-07T03:41:03;17.63;;;8.77;;
64957;SDS011;51486;50.232;19.208;2022-12-07T03:43:29;23.17;;;11.50;;
64957;SDS011;51486;50.232;19.208;2022-12-07T03:46:17;18.10;;;9.10;;
64957;SDS011;51486;50.232;19.208;2022-12-07T03:51:44;22.77;;;9.40;;
64957;SDS011;51486;50.232;19.208;2022-12-07T03:54:36;19.67;;;9.67;;
64957;SDS011;51486;50.232;19.208;2022-12-07T03:57:05;22.73;;;9.77;;
64957;SDS011;51486;50.232;19.208;2022-12-07T03:59:32;25.83;;;10.53;;
64957;SDS011;51486;50.232;19.208;2022-12-07T04:02:02;18.97;;;10.20;;
64957;SDS011;51486;50.232;19.208;2022-12-07T04:04:29;19.43;;;10.10;;
64957;SDS011;51486;50.232;19.208;2022-12-07T04:06:55;20.70;;;9.23;;
64957;SDS011;51486;50.232;19.208;2022-12-07T04:09:20;22.80;;;10.00;;
64957;SDS011;51486;50.232;19.208;2022-12-07T04:11:46;22.47;;;9.10;;
64957;SDS011;51486;50.232;19.208;2022-12-07T04:14:12;19.37;;;9.13;;
64957;SDS011;51486;50.232;19.208;2022-12-07T04:16:43;19.27;;;8.87;;
64957;SDS011;51486;50.232;19.208;2022-12-07T04:19:09;30.33;;;8.93;;
64957;SDS011;51486;50.232;19.208;2022-12-07T04:21:35;21.27;;;10.27;;
64957;SDS011;51486;50.232;19.208;2022-12-07T04:24:00;17.90;;;9.03;;
64957;SDS011;51486;50.232;19.208;2022-12-07T04:26:26;24.47;;;8.30;;
64957;SDS011;51486;50.232;19.208;2022-12-07T04:28:51;22.97;;;9.53;;
64957;SDS011;51486;50.232;19.208;2022-12-07T04:31:16;27.37;;;10.03;;
64957;SDS011;51486;50.232;19.208;2022-12-07T04:33:42;19.70;;;10.17;;
64957;SDS011;51486;50.232;19.208;2022-12-07T04:36:07;25.67;;;10.03;;
64957;SDS011;51486;50.232;19.208;2022-12-07T04:38:32;13.93;;;8.70;;
64957;SDS011;51486;50.232;19.208;2022-12-07T04:40:58;18.97;;;9.63;;
64957;SDS011;51486;50.232;19.208;2022-12-07T04:43:28;16.73;;;8.67;;
64957;SDS011;51486;50.232;19.208;2022-12-07T04:45:54;17.07;;;8.80;;
64957;SDS011;51486;50.232;19.208;2022-12-07T04:48:19;19.00;;;8.00;;
64957;SDS011;51486;50.232;19.208;2022-12-07T04:50:47;19.20;;;9.10;;
64957;SDS011;51486;50.232;19.208;2022-12-07T04:53:14;25.50;;;9.17;;
64957;SDS011;51486;50.232;19.208;2022-12-07T04:55:39;18.90;;;8.60;;
64957;SDS011;51486;50.232;19.208;2022-12-07T04:58:05;20.33;;;8.80;;
64957;SDS011;51486;50.232;19.208;2022-12-07T05:00:30;31.20;;;10.47;;
64957;SDS011;51486;50.232;19.208;2022-12-07T05:02:56;18.37;;;9.20;;
64957;SDS011;51486;50.232;19.208;2022-12-07T05:05:21;25.80;;;9.70;;
64957;SDS011;51486;50.232;19.208;2022-12-07T05:07:46;26.13;;;10.37;;
64957;SDS011;51486;50.232;19.208;2022-12-07T05:10:12;17.20;;;8.93;;
64957;SDS011;51486;50.232;19.208;2022-12-07T05:12:37;28.20;;;10.37;;
64957;SDS011;51486;50.232;19.208;2022-12-07T05:15:03;23.83;;;9.87;;
64957;SDS011;51486;50.232;19.208;2022-12-07T05:17:29;21.83;;;10.07;;
64957;SDS011;51486;50.232;19.208;2022-12-07T05:19:54;22.57;;;10.50;;
64957;SDS011;51486;50.232;19.208;2022-12-07T05:22:19;21.43;;;9.20;;
64957;SDS011;51486;50.232;19.208;2022-12-07T05:24:45;21.53;;;9.60;;
64957;SDS011;51486;50.232;19.208;2022-12-07T05:27:10;23.93;;;9.67;;
64957;SDS011;51486;50.232;19.208;2022-12-07T05:29:36;17.00;;;8.83;;
64957;SDS011;51486;50.232;19.208;2022-12-07T05:32:01;17.17;;;9.33;;
64957;SDS011;51486;50.232;19.208;2022-12-07T05:34:26;14.67;;;8.20;;
64957;SDS011;51486;50.232;19.208;2022-12-07T05:36:52;26.93;;;10.00;;
64957;SDS011;51486;50.232;19.208;2022-12-07T05:39:17;67.17;;;19.70;;
64957;SDS011;51486;50.232;19.208;2022-12-07T05:41:42;24.17;;;11.73;;
64957;SDS011;51486;50.232;19.208;2022-12-07T05:44:26;25.90;;;9.90;;
64957;SDS011;51486;50.232;19.208;2022-12-07T05:46:52;20.33;;;9.53;;
64957;SDS011;51486;50.232;19.208;2022-12-07T05:49:17;20.47;;;9.40;;
64957;SDS011;51486;50.232;19.208;2022-12-07T05:51:42;21.27;;;10.63;;
64957;SDS011;51486;50.232;19.208;2022-12-07T05:54:08;22.33;;;10.17;;
64957;SDS011;51486;50.232;19.208;2022-12-07T05:56:33;19.80;;;9.07;;
64957;SDS011;51486;50.232;19.208;2022-12-07T05:58:59;23.47;;;10.07;;
64957;SDS011;51486;50.232;19.208;2022-12-07T06:01:43;20.93;;;8.97;;
64957;SDS011;51486;50.232;19.208;2022-12-07T06:04:08;23.17;;;9.77;;
64957;SDS011;51486;50.232;19.208;2022-12-07T06:06:34;18.63;;;9.20;;
64957;SDS011;51486;50.232;19.208;2022-12-07T06:08:59;32.10;;;12.70;;
64957;SDS011;51486;50.232;19.208;2022-12-07T06:11:24;30.97;;;12.13;;
64957;SDS011;51486;50.232;19.208;2022-12-07T06:14:09;41.63;;;16.70;;
64957;SDS011;51486;50.232;19.208;2022-12-07T06:16:34;38.20;;;16.93;;
64957;SDS011;51486;50.232;19.208;2022-12-07T06:18:59;32.87;;;14.80;;
64957;SDS011;51486;50.232;19.208;2022-12-07T06:21:25;41.30;;;15.23;;
64957;SDS011;51486;50.232;19.208;2022-12-07T06:23:51;42.70;;;16.17;;
64957;SDS011;51486;50.232;19.208;2022-12-07T06:26:17;28.27;;;12.57;;
64957;SDS011;51486;50.232;19.208;2022-12-07T06:28:42;24.90;;;11.10;;
64957;SDS011;51486;50.232;19.208;2022-12-07T06:31:07;19.33;;;10.97;;
64957;SDS011;51486;50.232;19.208;2022-12-07T06:33:33;24.33;;;11.77;;
64957;SDS011;51486;50.232;19.208;2022-12-07T06:35:58;19.73;;;9.40;;
64957;SDS011;51486;50.232;19.208;2022-12-07T06:38:24;18.47;;;9.30;;
64957;SDS011;51486;50.232;19.208;2022-12-07T06:40:49;21.87;;;9.37;;
64957;SDS011;51486;50.232;19.208;2022-12-07T06:43:15;18.93;;;9.80;;
64957;SDS011;51486;50.232;19.208;2022-12-07T06:45:40;21.00;;;10.60;;
64957;SDS011;51486;50.232;19.208;2022-12-07T06:48:06;24.93;;;11.20;;
64957;SDS011;51486;50.232;19.208;2022-12-07T06:50:32;27.13;;;10.57;;
64957;SDS011;51486;50.232;19.208;2022-12-07T06:52:57;20.53;;;10.17;;
64957;SDS011;51486;50.232;19.208;2022-12-07T06:55:22;21.27;;;10.47;;
64957;SDS011;51486;50.232;19.208;2022-12-07T06:57:48;24.13;;;10.50;;
64957;SDS011;51486;50.232;19.208;2022-12-07T07:00:14;25.27;;;10.17;;
64957;SDS011;51486;50.232;19.208;2022-12-07T07:02:39;22.53;;;9.10;;
64957;SDS011;51486;50.232;19.208;2022-12-07T07:05:05;23.00;;;8.83;;
64957;SDS011;51486;50.232;19.208;2022-12-07T07:07:30;18.03;;;8.17;;
64957;SDS011;51486;50.232;19.208;2022-12-07T07:09:56;20.17;;;8.67;;
64957;SDS011;51486;50.232;19.208;2022-12-07T07:12:21;27.30;;;9.00;;
64957;SDS011;51486;50.232;19.208;2022-12-07T07:14:46;17.20;;;7.97;;
64957;SDS011;51486;50.232;19.208;2022-12-07T07:17:12;21.40;;;7.27;;
64957;SDS011;51486;50.232;19.208;2022-12-07T07:19:37;18.43;;;7.80;;
64957;SDS011;51486;50.232;19.208;2022-12-07T07:22:03;14.60;;;7.50;;
64957;SDS011;51486;50.232;19.208;2022-12-07T07:24:28;15.03;;;7.10;;
64957;SDS011;51486;50.232;19.208;2022-12-07T07:26:54;14.57;;;8.37;;
64957;SDS011;51486;50.232;19.208;2022-12-07T07:29:19;14.10;;;7.50;;
64957;SDS011;51486;50.232;19.208;2022-12-07T07:31:45;17.03;;;7.67;;
64957;SDS011;51486;50.232;19.208;2022-12-07T07:34:10;17.73;;;6.57;;
64957;SDS011;51486;50.232;19.208;2022-12-07T07:36:35;17.90;;;7.13;;
64957;SDS011;51486;50.232;19.208;2022-12-07T07:39:01;15.83;;;6.80;;
64957;SDS011;51486;50.232;19.208;2022-12-07T07:41:26;14.20;;;6.67;;
64957;SDS011;51486;50.232;19.208;2022-12-07T07:43:52;13.83;;;6.10;;
64957;SDS011;51486;50.232;19.208;2022-12-07T07:46:17;14.37;;;6.50;;
64957;SDS011;51486;50.232;19.208;2022-12-07T07:48:42;10.00;;;6.00;;
64957;SDS011;51486;50.232;19.208;2022-12-07T07:51:08;17.37;;;7.57;;
64957;SDS011;51486;50.232;19.208;2022-12-07T07:53:34;13.10;;;6.90;;
64957;SDS011;51486;50.232;19.208;2022-12-07T07:55:59;23.97;;;8.03;;
64957;SDS011;51486;50.232;19.208;2022-12-07T07:58:24;11.70;;;6.07;;
64957;SDS011;51486;50.232;19.208;2022-12-07T08:00:50;12.57;;;6.33;;
64957;SDS011;51486;50.232;19.208;2022-12-07T08:03:16;14.03;;;6.67;;
64957;SDS011;51486;50.232;19.208;2022-12-07T08:05:41;18.57;;;6.80;;
64957;SDS011;51486;50.232;19.208;2022-12-07T08:08:06;13.53;;;5.63;;
64957;SDS011;51486;50.232;19.208;2022-12-07T08:10:33;14.77;;;6.53;;
64957;SDS011;51486;50.232;19.208;2022-12-07T08:13:00;15.77;;;7.23;;
64957;SDS011;51486;50.232;19.208;2022-12-07T08:15:42;11.57;;;5.90;;
64957;SDS011;51486;50.232;19.208;2022-12-07T08:18:09;11.93;;;5.93;;
64957;SDS011;51486;50.232;19.208;2022-12-07T08:20:35;16.63;;;7.67;;
64957;SDS011;51486;50.232;19.208;2022-12-07T08:23:02;16.70;;;6.80;;
64957;SDS011;51486;50.232;19.208;2022-12-07T08:25:27;13.70;;;7.10;;
64957;SDS011;51486;50.232;19.208;2022-12-07T08:27:53;17.17;;;8.03;;
64957;SDS011;51486;50.232;19.208;2022-12-07T08:30:19;14.30;;;7.47;;
64957;SDS011;51486;50.232;19.208;2022-12-07T08:32:45;20.30;;;6.50;;
64957;SDS011;51486;50.232;19.208;2022-12-07T08:35:11;15.43;;;7.40;;
64957;SDS011;51486;50.232;19.208;2022-12-07T08:37:38;12.43;;;7.00;;
64957;SDS011;51486;50.232;19.208;2022-12-07T08:40:04;17.77;;;7.53;;
64957;SDS011;51486;50.232;19.208;2022-12-07T08:42:31;19.17;;;7.87;;
64957;SDS011;51486;50.232;19.208;2022-12-07T08:45:04;15.83;;;8.07;;
64957;SDS011;51486;50.232;19.208;2022-12-07T08:47:35;16.80;;;8.40;;
64957;SDS011;51486;50.232;19.208;2022-12-07T08:50:03;15.50;;;7.90;;
64957;SDS011;51486;50.232;19.208;2022-12-07T08:52:30;14.77;;;7.50;;
64957;SDS011;51486;50.232;19.208;2022-12-07T08:54:57;15.53;;;5.83;;
64957;SDS011;51486;50.232;19.208;2022-12-07T08:57:23;15.33;;;7.40;;
64957;SDS011;51486;50.232;19.208;2022-12-07T08:59:49;17.87;;;8.00;;
64957;SDS011;51486;50.232;19.208;2022-12-07T09:02:14;21.53;;;10.00;;
64957;SDS011;51486;50.232;19.208;2022-12-07T09:04:40;18.23;;;8.47;;
64957;SDS011;51486;50.232;19.208;2022-12-07T09:07:05;22.17;;;10.20;;
64957;SDS011;51486;50.232;19.208;2022-12-07T09:09:31;15.70;;;7.27;;
64957;SDS011;51486;50.232;19.208;2022-12-07T09:11:57;22.27;;;10.43;;
64957;SDS011;51486;50.232;19.208;2022-12-07T09:14:22;15.33;;;7.23;;
64957;SDS011;51486;50.232;19.208;2022-12-07T09:16:48;20.47;;;7.43;;
64957;SDS011;51486;50.232;19.208;2022-12-07T09:19:13;16.17;;;8.23;;
64957;SDS011;51486;50.232;19.208;2022-12-07T09:21:39;15.40;;;8.43;;
64957;SDS011;51486;50.232;19.208;2022-12-07T09:24:04;15.47;;;6.77;;
64957;SDS011;51486;50.232;19.208;2022-12-07T09:26:30;17.00;;;8.37;;
64957;SDS011;51486;50.232;19.208;2022-12-07T09:28:55;18.80;;;9.23;;
64957;SDS011;51486;50.232;19.208;2022-12-07T09:31:20;20.07;;;8.53;;
64957;SDS011;51486;50.232;19.208;2022-12-07T09:33:46;20.60;;;8.17;;
64957;SDS011;51486;50.232;19.208;2022-12-07T09:36:11;19.43;;;8.27;;
64957;SDS011;51486;50.232;19.208;2022-12-07T09:38:37;14.67;;;7.83;;
64957;SDS011;51486;50.232;19.208;2022-12-07T09:41:06;16.13;;;8.30;;
64957;SDS011;51486;50.232;19.208;2022-12-07T09:43:32;17.73;;;9.53;;
64957;SDS011;51486;50.232;19.208;2022-12-07T09:46:00;20.70;;;10.13;;
64957;SDS011;51486;50.232;19.208;2022-12-07T09:48:36;27.20;;;10.07;;
64957;SDS011;51486;50.232;19.208;2022-12-07T09:54:02;20.07;;;9.97;;
64957;SDS011;51486;50.232;19.208;2022-12-07T09:56:29;17.50;;;9.50;;
64957;SDS011;51486;50.232;19.208;2022-12-07T09:58:59;19.30;;;9.57;;
64957;SDS011;51486;50.232;19.208;2022-12-07T10:01:32;18.77;;;9.13;;
64957;SDS011;51486;50.232;19.208;2022-12-07T10:04:05;20.97;;;11.07;;
64957;SDS011;51486;50.232;19.208;2022-12-07T10:06:38;25.27;;;11.10;;
64957;SDS011;51486;50.232;19.208;2022-12-07T10:09:11;28.87;;;11.90;;
64957;SDS011;51486;50.232;19.208;2022-12-07T10:14:25;66.00;;;22.00;;
64957;SDS011;51486;50.232;19.208;2022-12-07T10:16:52;30.90;;;14.37;;
64957;SDS011;51486;50.232;19.208;2022-12-07T10:19:26;26.83;;;12.00;;
64957;SDS011;51486;50.232;19.208;2022-12-07T10:22:13;26.20;;;10.73;;
64957;SDS011;51486;50.232;19.208;2022-12-07T10:24:41;31.90;;;12.67;;
64957;SDS011;51486;50.232;19.208;2022-12-07T10:27:30;23.87;;;11.07;;
64957;SDS011;51486;50.232;19.208;2022-12-07T10:29:57;32.43;;;11.27;;
64957;SDS011;51486;50.232;19.208;2022-12-07T10:32:33;19.33;;;9.53;;
64957;SDS011;51486;50.232;19.208;2022-12-07T10:37:44;25.50;;;9.87;;
64957;SDS011;51486;50.232;19.208;2022-12-07T10:45:29;17.87;;;9.30;;
64957;SDS011;51486;50.232;19.208;2022-12-07T10:48:03;13.50;;;7.93;;
64957;SDS011;51486;50.232;19.208;2022-12-07T11:06:54;10.63;;;6.13;;
64957;SDS011;51486;50.232;19.208;2022-12-07T11:10:14;12.23;;;6.20;;
64957;SDS011;51486;50.232;19.208;2022-12-07T11:20:41;11.40;;;5.37;;
64957;SDS011;51486;50.232;19.208;2022-12-07T11:23:13;9.53;;;5.23;;
64957;SDS011;51486;50.232;19.208;2022-12-07T11:28:57;12.23;;;5.27;;
64957;SDS011;51486;50.232;19.208;2022-12-07T11:34:30;10.03;;;4.50;;
64957;SDS011;51486;50.232;19.208;2022-12-07T11:37:18;10.97;;;4.50;;
64957;SDS011;51486;50.232;19.208;2022-12-07T11:40:05;7.47;;;4.23;;
64957;SDS011;51486;50.232;19.208;2022-12-07T11:42:58;10.00;;;4.73;;
64957;SDS011;51486;50.232;19.208;2022-12-07T11:45:27;11.23;;;4.90;;
64957;SDS011;51486;50.232;19.208;2022-12-07T11:58:14;13.50;;;5.57;;
64957;SDS011;51486;50.232;19.208;2022-12-07T12:00:50;9.60;;;5.23;;
64957;SDS011;51486;50.232;19.208;2022-12-07T12:03:25;18.73;;;5.10;;
64957;SDS011;51486;50.232;19.208;2022-12-07T12:05:56;9.90;;;5.40;;
64957;SDS011;51486;50.232;19.208;2022-12-07T12:08:42;16.57;;;6.70;;
64957;SDS011;51486;50.232;19.208;2022-12-07T12:22:15;15.93;;;6.90;;
64957;SDS011;51486;50.232;19.208;2022-12-07T12:24:43;9.60;;;5.80;;
64957;SDS011;51486;50.232;19.208;2022-12-07T12:27:19;9.83;;;4.67;;
64957;SDS011;51486;50.232;19.208;2022-12-07T12:29:53;17.77;;;7.40;;
64957;SDS011;51486;50.232;19.208;2022-12-07T12:32:40;17.47;;;6.77;;
64957;SDS011;51486;50.232;19.208;2022-12-07T12:40:54;7.97;;;4.10;;
64957;SDS011;51486;50.232;19.208;2022-12-07T12:54:32;8.97;;;2.90;;
64957;SDS011;51486;50.232;19.208;2022-12-07T12:59:29;6.37;;;3.77;;
64957;SDS011;51486;50.232;19.208;2022-12-07T13:02:06;5.73;;;3.50;;
64957;SDS011;51486;50.232;19.208;2022-12-07T13:04:48;12.07;;;4.20;;
64957;SDS011;51486;50.232;19.208;2022-12-07T13:10:20;9.03;;;3.93;;
64957;SDS011;51486;50.232;19.208;2022-12-07T13:15:37;7.07;;;4.00;;
64957;SDS011;51486;50.232;19.208;2022-12-07T13:20:51;9.30;;;3.50;;
64957;SDS011;51486;50.232;19.208;2022-12-07T13:28:38;7.53;;;4.50;;
64957;SDS011;51486;50.232;19.208;2022-12-07T13:33:46;8.53;;;4.23;;
64957;SDS011;51486;50.232;19.208;2022-12-07T13:36:55;9.23;;;3.90;;
64957;SDS011;51486;50.232;19.208;2022-12-07T13:39:15;12.73;;;4.50;;
64957;SDS011;51486;50.232;19.208;2022-12-07T13:41:43;10.57;;;4.20;;
64957;SDS011;51486;50.232;19.208;2022-12-07T13:44:10;10.07;;;3.97;;
64957;SDS011;51486;50.232;19.208;2022-12-07T13:46:45;7.30;;;4.07;;
64957;SDS011;51486;50.232;19.208;2022-12-07T13:49:16;8.87;;;3.70;;
64957;SDS011;51486;50.232;19.208;2022-12-07T13:51:44;8.50;;;3.93;;
64957;SDS011;51486;50.232;19.208;2022-12-07T13:54:10;9.67;;;3.90;;
64957;SDS011;51486;50.232;19.208;2022-12-07T13:56:37;8.17;;;4.37;;
64957;SDS011;51486;50.232;19.208;2022-12-07T13:59:12;12.10;;;4.33;;
64957;SDS011;51486;50.232;19.208;2022-12-07T14:01:40;13.37;;;4.87;;
64957;SDS011;51486;50.232;19.208;2022-12-07T14:04:16;18.03;;;7.13;;
64957;SDS011;51486;50.232;19.208;2022-12-07T14:06:49;15.10;;;5.57;;
64957;SDS011;51486;50.232;19.208;2022-12-07T14:11:47;14.70;;;5.03;;
64957;SDS011;51486;50.232;19.208;2022-12-07T14:14:15;8.57;;;4.20;;
64957;SDS011;51486;50.232;19.208;2022-12-07T14:16:43;7.90;;;4.50;;
64957;SDS011;51486;50.232;19.208;2022-12-07T14:22:07;12.23;;;5.47;;
64957;SDS011;51486;50.232;19.208;2022-12-07T14:24:43;9.67;;;4.47;;
64957;SDS011;51486;50.232;19.208;2022-12-07T14:27:18;9.87;;;4.43;;
64957;SDS011;51486;50.232;19.208;2022-12-07T14:29:45;9.83;;;3.43;;
64957;SDS011;51486;50.232;19.208;2022-12-07T14:34:53;7.30;;;3.83;;
64957;SDS011;51486;50.232;19.208;2022-12-07T14:37:35;9.20;;;4.60;;
64957;SDS011;51486;50.232;19.208;2022-12-07T14:40:01;6.37;;;3.90;;
64957;SDS011;51486;50.232;19.208;2022-12-07T14:42:27;7.40;;;4.00;;
64957;SDS011;51486;50.232;19.208;2022-12-07T14:44:54;7.83;;;3.43;;
64957;SDS011;51486;50.232;19.208;2022-12-07T14:47:21;5.40;;;3.30;;
64957;SDS011;51486;50.232;19.208;2022-12-07T14:49:46;7.23;;;3.73;;
64957;SDS011;51486;50.232;19.208;2022-12-07T14:52:30;7.53;;;3.90;;
64957;SDS011;51486;50.232;19.208;2022-12-07T14:54:55;9.07;;;4.23;;
64957;SDS011;51486;50.232;19.208;2022-12-07T14:57:21;5.90;;;3.97;;
64957;SDS011;51486;50.232;19.208;2022-12-07T14:59:46;10.53;;;4.73;;
64957;SDS011;51486;50.232;19.208;2022-12-07T15:02:12;10.67;;;4.77;;
64957;SDS011;51486;50.232;19.208;2022-12-07T15:04:39;9.67;;;4.60;;
64957;SDS011;51486;50.232;19.208;2022-12-07T15:07:08;8.03;;;4.27;;
64957;SDS011;51486;50.232;19.208;2022-12-07T15:09:38;6.73;;;4.13;;
64957;SDS011;51486;50.232;19.208;2022-12-07T15:12:04;10.90;;;4.47;;
64957;SDS011;51486;50.232;19.208;2022-12-07T15:14:29;9.70;;;4.00;;
64957;SDS011;51486;50.232;19.208;2022-12-07T15:16:55;9.50;;;4.23;;
64957;SDS011;51486;50.232;19.208;2022-12-07T15:19:21;9.97;;;4.90;;
64957;SDS011;51486;50.232;19.208;2022-12-07T15:21:50;13.00;;;5.37;;
64957;SDS011;51486;50.232;19.208;2022-12-07T15:24:15;7.33;;;4.10;;
64957;SDS011;51486;50.232;19.208;2022-12-07T15:26:41;14.33;;;5.67;;
64957;SDS011;51486;50.232;19.208;2022-12-07T15:29:07;11.27;;;5.57;;
64957;SDS011;51486;50.232;19.208;2022-12-07T15:31:33;11.90;;;4.77;;
64957;SDS011;51486;50.232;19.208;2022-12-07T15:34:00;11.00;;;4.80;;
64957;SDS011;51486;50.232;19.208;2022-12-07T15:36:26;14.50;;;5.53;;
64957;SDS011;51486;50.232;19.208;2022-12-07T15:38:53;11.20;;;5.47;;
64957;SDS011;51486;50.232;19.208;2022-12-07T15:41:19;12.33;;;5.20;;
64957;SDS011;51486;50.232;19.208;2022-12-07T15:43:45;9.73;;;5.00;;
64957;SDS011;51486;50.232;19.208;2022-12-07T15:46:30;10.80;;;5.67;;
64957;SDS011;51486;50.232;19.208;2022-12-07T15:48:56;12.03;;;5.13;;
64957;SDS011;51486;50.232;19.208;2022-12-07T15:51:22;14.50;;;5.63;;
64957;SDS011;51486;50.232;19.208;2022-12-07T15:53:47;17.40;;;5.93;;
64957;SDS011;51486;50.232;19.208;2022-12-07T15:56:12;10.20;;;5.53;;
64957;SDS011;51486;50.232;19.208;2022-12-07T15:58:38;10.40;;;5.53;;
64957;SDS011;51486;50.232;19.208;2022-12-07T16:01:10;18.13;;;7.97;;
64957;SDS011;51486;50.232;19.208;2022-12-07T16:03:39;55.37;;;21.23;;
64957;SDS011;51486;50.232;19.208;2022-12-07T16:06:05;34.40;;;14.80;;
64957;SDS011;51486;50.232;19.208;2022-12-07T16:08:30;38.33;;;15.13;;
64957;SDS011;51486;50.232;19.208;2022-12-07T16:10:56;20.03;;;8.50;;
64957;SDS011;51486;50.232;19.208;2022-12-07T16:13:21;24.60;;;9.53;;
64957;SDS011;51486;50.232;19.208;2022-12-07T16:15:46;28.13;;;12.10;;
64957;SDS011;51486;50.232;19.208;2022-12-07T16:18:12;23.57;;;9.43;;
64957;SDS011;51486;50.232;19.208;2022-12-07T16:20:37;22.83;;;10.00;;
64957;SDS011;51486;50.232;19.208;2022-12-07T16:23:03;30.40;;;11.07;;
64957;SDS011;51486;50.232;19.208;2022-12-07T16:25:28;18.63;;;7.60;;
64957;SDS011;51486;50.232;19.208;2022-12-07T16:27:54;19.87;;;8.63;;
64957;SDS011;51486;50.232;19.208;2022-12-07T16:30:19;20.60;;;8.03;;
64957;SDS011;51486;50.232;19.208;2022-12-07T16:32:45;20.23;;;6.83;;
64957;SDS011;51486;50.232;19.208;2022-12-07T16:35:11;13.70;;;6.57;;
64957;SDS011;51486;50.232;19.208;2022-12-07T16:37:37;14.13;;;6.93;;
64957;SDS011;51486;50.232;19.208;2022-12-07T16:40:03;12.67;;;6.33;;
64957;SDS011;51486;50.232;19.208;2022-12-07T16:42:32;15.97;;;6.30;;
64957;SDS011;51486;50.232;19.208;2022-12-07T16:44:58;14.87;;;6.47;;
64957;SDS011;51486;50.232;19.208;2022-12-07T16:47:23;15.00;;;6.73;;
64957;SDS011;51486;50.232;19.208;2022-12-07T16:49:49;9.90;;;5.37;;
64957;SDS011;51486;50.232;19.208;2022-12-07T16:52:14;19.27;;;7.43;;
64957;SDS011;51486;50.232;19.208;2022-12-07T16:54:40;22.27;;;7.73;;